HIDDEN DAM (HENSLEY) (HID)

Elevation: 561' · FRESNO R basin · Operator: US Army Corps of Engineers

Provisional data, subject to change.
Query executed Friday at 11:16:52

Select a sensor type for a plot of data.
Note: Reservoir Flows are daily averages.

Earlier

Date RES ELE    STORAGE    RES CHG    TOC STO    ABV TOC    OUTFLOW    INFLOW    PPT INC    TEMP MN    TEMP MX    WINDLEN    EVP PAN   
 FEET   AF   AF   AF   AF   CFS   CFS   INCHES   DEG F   DEG F   MILES   INCHES  
11/10/2016 475.22 17304 0 39286 -21982 0 4 0.00 56 83 105 0.14
11/11/2016 475.23 17310 6 38571 -21261 0 7 0.00 55 87 108 0.16
11/12/2016 475.22 17301 -- 37857 -20556 0 -1 0.00 12 27 10 0.13
11/13/2016 475.21 17297 -- 37143 -19845 0 1 0.00 10 26 103 0.12
11/14/2016 475.24 17317 20 36428 -19111 0 13 0.00 11 27 110 0.13
11/15/2016 475.25 17321 -- 35714 -18393 0 5 0.00 10 24 109 0.11
11/16/2016 475.76 17655 334 35000 -17345 0 171 0.00 5 16 159 0.09
11/17/2016 475.24 17317 -338 34286 -16969 0 -168 0.00 3 17 99 0.09
11/18/2016 475.21 17295 351 33571 -16276 0 5 0.00 5 23 122 0.14
11/19/2016 475.21 17298 -- 32857 -15559 0 5 0.00 10 22 127 0.13
11/20/2016 475.26 17330 -- 32143 -14813 0 19 0.30 10 20 116 0.09
11/21/2016 475.25 17323 -7 31429 -14106 0 -2 0.05 7 15 92 0.04
11/22/2016 475.26 17330 7 30714 -13384 0 6 0.00 6 17 87 0.07
11/23/2016 475.28 17343 13 30000 -12657 0 9 0.03 6 17 109 0.07
11/24/2016 475.28 17343 0 29286 -11943 0 2 0.00 4 18 96 0.08
11/25/2016 475.33 17375 32 28571 -11196 0 18 0.00 3 17 109 0.08
11/26/2016 475.38 17407 32 27857 -10450 0 19 0.34 8 16 126 0.08
11/27/2016 475.42 17433 26 27143 -9710 1 16 0.58 7 14 120 0.06
11/28/2016 475.51 17492 59 26429 -8937 0 31 0.00 8 12 83 0.04
11/29/2016 475.56 17524 32 25714 -8190 1 18 0.00 5 15 69 0.05
11/30/2016 475.60 17551 27 25000 -7449 1 16 0.00 4 15 90 0.06
12/01/2016 475.63 17570 19 25000 -7430 1 11 0.00 3 10 67 0.03
12/02/2016 475.64 17577 7 25000 -7423 1 5 0.00 3 12 85 0.04
12/03/2016 475.65 17583 6 25000 -7417 1 6 0.00 3 15 102 0.07
12/04/2016 475.67 17596 13 25000 -7404 0 9 0.00 4 17 102 0.07
12/05/2016 475.69 17609 13 25000 -7391 0 8 0.00 4 11 90 0.04
12/06/2016 475.73 17635 26 25000 -7365 0 14 0.00 4 11 81 0.04
12/07/2016 475.74 17642 7 25000 -7358 0 5 0.00 1 11 83 0.04
12/08/2016 475.83 17701 59 25000 -7299 1 31 0.61 8 14 108 0.04
12/09/2016 -- -- -- -- -- -- -- -- -- -- -- --

Later | Latest

Warning! This data is preliminary and subject to revision.

Show HID Map | Plot HID Data | 1 Month HID Data | Real-Time HID Data | HID Info